Pepperell, Massachusetts
Current Conditions -  °F | °C
As of 7:51 PM on Wednesday 17 Dec 2014 (Local Time) from KASH Reporting Station
Broken Clouds Broken Clouds  
Wind Chill: 38°   Ceiling: 3400
Heat Index: 44°   Visibility: 10mi
Dew Point: 37°   Wind: 12mph
Humidity: 76%   Direction: 290°WNW
Pressure: 29.73"   Gusts: NA
Location:  42.66°N, 71.6°W
Report Text: KASH 180051Z AUTO 29010KT 10SM BKN034 07/03 A2973 RMK AO2 T00660027 SLP320
Loading
Personal Weather Stations






























Interactive Weather Map New forecast layout! Learn more

10-Day Weather Forecast

Advertisements
Track Severe Weather on mobile